Aeroporto :







RITROVATECI SU...

 
LOGIN :

Iscrizione | Disclaimer

   EN    FR    IT 

 









Sommario :    VFR   VFR Marginale   IFR   IFR Intensivo   IFR Molto Intensivo
Visibilità : 
Base nubi : 
>= 8 km
>= 3000ft
5 / 8 km
1000 / 3000 ft
1500m / 5 km
500 / 1000 ft
800 / 1500m
200 / 500 ft
< 800m
< 200 ft
Simboli :   Temporali  Nebbia  Neve Forte  Precipitazioni Forti  Vento > 20 kt






- Altitudine del aeroporto : 108 ft
- Codice IATA : YGP


CYGP - Gaspé

ULTIMO METAR :
  • 211600Z 25012KT 15SM SKC M11/M21 A3016 RMK SLP218

METARs OBSOLETI :
  • 211500Z 26009KT 15SM SKC M13/M22 A3019 RMK SLP229
  • 211400Z 25006KT 15SM SKC M15/M22 A3021 RMK SLP234

TAF TAF CYGP
Valido dal 21 a 14 ore il 22 a 02 ore UTC


211343Z 2114/2202 VRB03KT P6SM SKC
FM211600 27008KT P6SM SCT030
FM220000 26007KT P6SM SKC RMK NXT FCST BY 212000Z



MetMap, La meteo Aeronautica in un colpo d'occhio ! - Copyright ORBIFLY Dicembre 2007 - Disclaimer

ORBIFLY MET'MAP TEAM :

Programmazione e sviluppo : Alexandra Zaïnal
Concezione : Baudouin d'Aumeries
Aiuto per la programmazione : Marc-Olivier Méhu
Supporto tecnico e logistico : Manuel Goepfert
Aiuto per la traduzione : Arnaldo La Scala

Contatto : metmap@orbifly.com




FONTI E CREDITI :

   NOAA